Terminal Aerodrome Forecast
Issued by NWS

Home | Current Version | Previous Version | Text Only | Print | Product List | Glossary Off
Versions: 1 2 3 4 5 6 7 8 9 10 11 12 13 14 15 16 17 18

000
FTUS43 KGRB 211000 AAA
TAFATW
TAF AMD
KATW 211037Z 2111/2206 15007KT 5SM BR SCT020 OVC035
      TEMPO 2111/2112 BKN020
     FM211200 15004KT 4SM -FZDZ BR OVC012
     FM211600 16008KT 6SM BR OVC015
     FM220100 17010KT 5SM -DZ BR OVC012=

USA.gov is the U.S. government's official web portal to all federal, state and local government web resources and services.